createdAt,value
2023-04-04T00:01:11.364Z,3.60
2023-04-04T00:03:43.086Z,3.40
2023-04-04T00:06:11.490Z,3.20
2023-04-04T00:08:39.701Z,3.00
2023-04-04T00:11:07.930Z,3.30
2023-04-04T00:13:38.276Z,3.80
2023-04-04T00:16:06.908Z,3.60
2023-04-04T00:18:38.211Z,3.40
2023-04-04T00:21:06.717Z,3.50
2023-04-04T00:23:35.041Z,3.20
2023-04-04T00:26:03.573Z,3.70
2023-04-04T00:28:31.797Z,2.80
2023-04-04T00:31:00.926Z,3.00
2023-04-04T00:33:30.547Z,3.30
2023-04-04T00:35:59.793Z,3.60
2023-04-04T00:38:29.833Z,3.70
2023-04-04T00:40:58.006Z,3.30
2023-04-04T00:43:27.279Z,3.70
2023-04-04T00:45:55.632Z,4.00
2023-04-04T00:48:25.030Z,3.80
2023-04-04T00:50:53.381Z,3.20
2023-04-04T00:53:21.632Z,3.50
2023-04-04T00:55:50.161Z,3.50
2023-04-04T00:58:19.306Z,3.40
2023-04-04T01:00:48.079Z,3.60
2023-04-04T01:03:26.295Z,3.60
2023-04-04T01:05:55.959Z,3.70
2023-04-04T01:08:26.532Z,3.30
2023-04-04T01:10:56.541Z,3.70
2023-04-04T01:13:25.174Z,3.30
2023-04-04T01:15:53.766Z,3.40
2023-04-04T01:18:23.312Z,3.30
2023-04-04T01:21:03.204Z,3.50
2023-04-04T01:23:51.811Z,3.60
2023-04-04T01:26:22.224Z,3.30
2023-04-04T01:28:50.591Z,3.30
2023-04-04T01:31:22.494Z,3.50
2023-04-04T01:34:14.267Z,3.10
2023-04-04T01:38:20.883Z,3.60
2023-04-04T01:40:51.310Z,3.80
2023-04-04T01:43:20.681Z,3.90
2023-04-04T01:46:15.371Z,3.80
2023-04-04T01:48:46.720Z,3.70
2023-04-04T01:51:18.595Z,4.30
2023-04-04T01:53:47.022Z,3.40
2023-04-04T01:56:15.498Z,3.70
2023-04-04T01:58:43.845Z,4.30
2023-04-04T02:01:12.980Z,4.30
2023-04-04T02:03:42.620Z,5.20
2023-04-04T02:06:11.979Z,5.70
2023-04-04T02:08:41.500Z,4.80
2023-04-04T02:11:10.560Z,4.70
2023-04-04T02:13:46.324Z,4.30
2023-04-04T02:16:16.261Z,3.50
2023-04-04T02:18:45.091Z,3.80
2023-04-04T02:21:14.666Z,4.30
2023-04-04T02:23:42.849Z,3.50
2023-04-04T02:26:11.230Z,3.10
2023-04-04T02:28:48.280Z,3.40
2023-04-04T02:31:16.869Z,4.10
2023-04-04T02:33:46.404Z,2.90
2023-04-04T02:36:16.135Z,2.90
2023-04-04T02:38:45.262Z,2.30
2023-04-04T02:41:13.918Z,1.90
2023-04-04T02:43:43.675Z,2.60
2023-04-04T02:46:21.113Z,3.00
2023-04-04T02:48:53.429Z,2.40
2023-04-04T02:51:21.621Z,2.70
2023-04-04T02:53:50.383Z,3.10
2023-04-04T02:56:25.711Z,2.90
2023-04-04T02:58:55.993Z,2.50
2023-04-04T03:01:24.359Z,2.30
2023-04-04T03:03:53.248Z,2.30
2023-04-04T03:06:22.584Z,2.00
2023-04-04T03:08:51.178Z,2.10
2023-04-04T03:11:21.600Z,2.00
2023-04-04T03:13:51.801Z,1.70
2023-04-04T03:16:22.574Z,2.10
2023-04-04T03:18:52.399Z,1.60
2023-04-04T03:21:29.390Z,2.60
2023-04-04T03:23:58.984Z,2.50
2023-04-04T03:26:28.467Z,2.20
2023-04-04T03:28:56.949Z,2.00
2023-04-04T03:31:26.165Z,2.30
2023-04-04T03:33:54.721Z,2.40
2023-04-04T03:36:23.613Z,2.20
2023-04-04T03:38:53.974Z,2.50
2023-04-04T03:43:17.864Z,2.80
2023-04-04T03:45:47.879Z,2.30
2023-04-04T03:48:17.190Z,2.70
2023-04-04T03:50:45.567Z,2.50
2023-04-04T03:53:15.003Z,2.80
2023-04-04T03:55:45.424Z,2.20
2023-04-04T03:58:15.833Z,2.20
2023-04-04T04:00:44.380Z,2.20
2023-04-04T04:03:15.617Z,2.70
2023-04-04T04:05:45.273Z,2.70
2023-04-04T04:08:16.190Z,3.40
2023-04-04T04:10:46.549Z,3.00
2023-04-04T04:13:15.267Z,4.10
2023-04-04T04:15:43.588Z,4.40
2023-04-04T04:18:17.298Z,4.30
2023-04-04T04:20:45.883Z,3.30
2023-04-04T04:23:14.148Z,3.00
2023-04-04T04:25:42.753Z,3.80
2023-04-04T04:28:19.103Z,3.00
2023-04-04T04:30:48.868Z,4.10
2023-04-04T04:33:20.272Z,4.20
2023-04-04T04:36:03.303Z,3.50
2023-04-04T04:38:39.855Z,3.40
2023-04-04T04:41:08.210Z,2.90
2023-04-04T04:43:43.184Z,3.50
2023-04-04T04:46:11.506Z,3.20
2023-04-04T04:48:48.462Z,3.20
2023-04-04T04:51:18.147Z,3.30
2023-04-04T04:53:52.737Z,3.90
2023-04-04T04:56:22.519Z,3.10
2023-04-04T04:58:52.359Z,4.20
2023-04-04T05:01:27.491Z,3.00
2023-04-04T05:03:56.855Z,2.90
2023-04-04T05:06:31.620Z,2.50
2023-04-04T05:09:07.191Z,3.20
2023-04-04T05:11:39.456Z,3.00
2023-04-04T05:14:09.658Z,2.30
2023-04-04T05:16:45.429Z,2.10
2023-04-04T05:19:15.777Z,2.10
2023-04-04T05:21:48.222Z,2.10
2023-04-04T05:24:28.793Z,1.90
2023-04-04T05:27:00.584Z,2.10
2023-04-04T05:29:33.950Z,2.00
2023-04-04T05:32:09.911Z,2.80
2023-04-04T05:34:41.764Z,2.50
2023-04-04T05:37:13.484Z,2.10
2023-04-04T05:39:49.169Z,1.90
2023-04-04T05:42:17.841Z,2.10
2023-04-04T05:44:50.158Z,1.70
2023-04-04T05:47:22.094Z,1.90
2023-04-04T05:49:50.837Z,2.00
2023-04-04T05:52:21.843Z,1.90
2023-04-04T05:54:51.460Z,1.90
2023-04-04T05:57:25.891Z,2.00
2023-04-04T06:00:02.429Z,1.70
2023-04-04T06:02:34.443Z,1.50
2023-04-04T06:05:04.982Z,1.40
2023-04-04T06:07:39.714Z,2.20
2023-04-04T06:10:10.581Z,1.90
2023-04-04T06:12:40.531Z,2.50
2023-04-04T06:15:12.191Z,1.50
2023-04-04T06:17:42.908Z,1.80
2023-04-04T06:20:15.063Z,2.80
2023-04-04T06:22:44.562Z,2.80
2023-04-04T06:25:14.724Z,3.10
2023-04-04T06:27:43.793Z,2.30
2023-04-04T06:30:14.652Z,2.20
2023-04-04T06:32:45.306Z,2.00
2023-04-04T06:35:20.106Z,2.20
2023-04-04T06:37:56.996Z,2.20
2023-04-04T06:40:27.880Z,2.50
2023-04-04T06:42:58.528Z,2.00
2023-04-04T06:45:39.471Z,2.00
2023-04-04T06:52:23.593Z,1.90
2023-04-04T06:54:52.760Z,1.90
2023-04-04T06:57:24.936Z,1.50
2023-04-04T06:59:54.318Z,1.60
2023-04-04T07:02:22.580Z,2.50
2023-04-04T07:04:50.955Z,2.00
2023-04-04T07:07:19.247Z,1.40
2023-04-04T07:09:47.927Z,1.60
2023-04-04T07:12:16.652Z,1.40
2023-04-04T07:14:45.488Z,1.70
2023-04-04T07:17:23.591Z,2.00
2023-04-04T07:19:53.041Z,2.50
2023-04-04T07:22:21.584Z,2.40
2023-04-04T07:24:50.510Z,2.20
2023-04-04T07:27:19.168Z,3.60
2023-04-04T07:29:47.754Z,2.90
2023-04-04T07:32:16.114Z,4.10
2023-04-04T07:34:45.512Z,2.90
2023-04-04T07:37:13.695Z,2.40
2023-04-04T07:39:42.284Z,2.10
2023-04-04T07:42:10.904Z,2.50
2023-04-04T07:44:49.764Z,2.10
2023-04-04T07:47:18.394Z,2.20
2023-04-04T07:49:46.727Z,2.10
2023-04-04T07:52:15.014Z,2.50
2023-04-04T07:54:43.242Z,2.00
2023-04-04T07:57:12.064Z,2.70
2023-04-04T07:59:42.741Z,2.40
2023-04-04T08:02:15.195Z,3.20
2023-04-04T08:04:43.850Z,2.70
2023-04-04T08:07:12.040Z,2.60
2023-04-04T08:09:40.370Z,2.60
2023-04-04T08:12:09.804Z,2.10
2023-04-04T08:14:38.622Z,1.60
2023-04-04T08:17:08.772Z,1.70
2023-04-04T08:19:42.060Z,2.00
2023-04-04T08:22:10.507Z,2.50
2023-04-04T08:24:38.735Z,2.80
2023-04-04T08:27:07.474Z,1.40
2023-04-04T08:29:36.502Z,1.20
2023-04-04T08:32:05.240Z,2.20
2023-04-04T08:34:34.730Z,2.20
2023-04-04T08:37:03.035Z,1.90
2023-04-04T08:39:31.801Z,36.70
2023-04-04T08:42:06.718Z,31.90
2023-04-04T08:44:37.563Z,90.80
2023-04-04T08:47:06.177Z,58.40
2023-04-04T08:49:41.542Z,72.70
2023-04-04T08:54:44.441Z,11.50
2023-04-04T08:57:12.720Z,2.00
2023-04-04T08:59:41.021Z,11.90
2023-04-04T09:02:09.484Z,19.10
2023-04-04T09:04:38.023Z,8.70
2023-04-04T09:07:06.449Z,6.70
2023-04-04T09:09:34.983Z,3.40
2023-04-04T09:12:03.507Z,2.50
2023-04-04T09:14:32.026Z,1.70
2023-04-04T09:17:01.081Z,2.50
2023-04-04T09:19:29.655Z,1.80
2023-04-04T09:21:58.032Z,1.90
2023-04-04T09:24:40.135Z,1.70
2023-04-04T09:27:11.895Z,1.80
2023-04-04T09:29:41.064Z,2.00
2023-04-04T09:32:18.570Z,1.80
2023-04-04T09:34:46.881Z,1.80
2023-04-04T09:37:15.584Z,1.90
2023-04-04T09:39:44.425Z,1.80
2023-04-04T09:42:13.724Z,1.50
2023-04-04T09:44:44.778Z,1.80
2023-04-04T09:47:31.986Z,1.70
2023-04-04T09:50:01.263Z,1.70
2023-04-04T09:52:36.974Z,4.50
2023-04-04T09:57:13.098Z,260.00
2023-04-04T09:59:42.974Z,82.10
2023-04-04T10:02:11.644Z,50.60
2023-04-04T10:04:40.853Z,5.20
2023-04-04T10:07:15.425Z,5.80
2023-04-04T10:09:43.960Z,2.70
2023-04-04T10:12:12.327Z,2.30
2023-04-04T10:14:47.855Z,2.50
2023-04-04T10:17:16.772Z,2.50
2023-04-04T10:19:45.024Z,2.00
2023-04-04T10:22:17.524Z,1.80
2023-04-04T10:24:46.400Z,2.90
2023-04-04T10:27:14.663Z,3.00
2023-04-04T10:29:44.269Z,2.40
2023-04-04T10:32:17.434Z,2.40
2023-04-04T10:37:22.542Z,3.30
2023-04-04T10:40:08.975Z,3.70
2023-04-04T10:42:40.217Z,2.30
2023-04-04T10:45:19.749Z,51.00
2023-04-04T10:47:49.469Z,36.10
2023-04-04T10:50:17.965Z,102.90
2023-04-04T10:52:46.290Z,43.90
2023-04-04T10:55:16.599Z,98.70
2023-04-04T10:57:52.088Z,12.50
2023-04-04T11:00:23.425Z,36.80
2023-04-04T11:02:53.383Z,21.40
2023-04-04T11:05:28.079Z,14.90
2023-04-04T11:10:32.142Z,8.80
2023-04-04T11:13:16.616Z,3.50
2023-04-04T11:15:45.958Z,2.70
2023-04-04T11:18:30.599Z,2.10
2023-04-04T11:21:06.743Z,2.30
2023-04-04T11:23:50.223Z,2.20
2023-04-04T11:26:39.806Z,2.50
2023-04-04T11:29:08.353Z,2.60
2023-04-04T11:31:44.066Z,2.00
2023-04-04T11:34:13.519Z,2.70
2023-04-04T11:36:43.216Z,2.00
2023-04-04T11:39:15.803Z,7.70
2023-04-04T11:41:59.010Z,5.70
2023-04-04T11:44:29.754Z,3.50
2023-04-04T11:47:02.840Z,4.70
2023-04-04T11:56:13.676Z,6.20
2023-04-04T11:58:42.093Z,3.70
2023-04-04T12:01:14.833Z,4.20
2023-04-04T12:03:43.656Z,3.60
2023-04-04T12:06:12.249Z,3.30
2023-04-04T12:08:42.658Z,2.70
2023-04-04T12:11:11.221Z,3.50
2023-04-04T12:13:46.960Z,4.50
2023-04-04T12:16:20.296Z,4.60
2023-04-04T12:18:49.776Z,3.50
2023-04-04T12:21:25.118Z,6.60
2023-04-04T12:23:54.387Z,2.80
2023-04-04T12:26:23.710Z,2.80
2023-04-04T12:28:57.283Z,2.40
2023-04-04T12:31:27.419Z,3.20
2023-04-04T12:33:55.993Z,3.40
2023-04-04T12:36:26.541Z,3.00
2023-04-04T12:39:00.323Z,3.30
2023-04-04T12:41:35.793Z,2.60
2023-04-04T12:44:05.677Z,2.40
2023-04-04T12:46:41.090Z,3.40
2023-04-04T12:49:14.237Z,4.10
2023-04-04T12:51:43.352Z,2.40
2023-04-04T12:54:27.712Z,2.30
2023-04-04T12:56:59.032Z,3.20
2023-04-04T12:59:32.146Z,2.50
2023-04-04T13:02:07.771Z,2.20
2023-04-04T13:04:38.150Z,3.10
2023-04-04T13:07:27.816Z,2.40
2023-04-04T13:10:00.381Z,128.00
2023-04-04T13:12:58.923Z,242.10
2023-04-04T13:15:52.713Z,212.70
2023-04-04T13:18:25.474Z,94.70
2023-04-04T13:20:54.917Z,42.90
2023-04-04T13:23:23.438Z,29.20
2023-04-04T13:25:54.443Z,29.00
2023-04-04T13:28:23.659Z,133.40
2023-04-04T13:30:52.428Z,14.10
2023-04-04T13:33:25.204Z,28.70
2023-04-04T13:35:54.216Z,108.80
2023-04-04T13:38:27.031Z,64.40
2023-04-04T13:40:57.367Z,54.00
2023-04-04T13:43:27.191Z,93.30
2023-04-04T13:45:56.164Z,29.00
2023-04-04T13:48:28.198Z,21.70
2023-04-04T13:50:57.597Z,33.30
2023-04-04T13:58:21.289Z,3.30
2023-04-04T14:00:49.813Z,2.20
2023-04-04T14:12:05.945Z,8.10
2023-04-04T14:14:35.735Z,22.00
2023-04-04T14:17:20.139Z,5.20
2023-04-04T14:19:48.699Z,58.20
2023-04-04T14:22:18.870Z,134.10
2023-04-04T14:24:49.152Z,22.70
2023-04-04T14:27:17.867Z,19.40
2023-04-04T14:29:48.393Z,48.30
2023-04-04T14:32:20.252Z,35.00
2023-04-04T14:35:01.349Z,41.40
2023-04-04T14:37:29.964Z,10.50
2023-04-04T14:39:59.446Z,9.80
2023-04-04T14:42:32.735Z,21.00
2023-04-04T14:45:05.194Z,21.90
2023-04-04T14:47:35.252Z,6.70
2023-04-04T14:50:04.423Z,5.50
2023-04-04T14:52:33.040Z,4.20
2023-04-04T14:55:02.222Z,4.90
2023-04-04T14:57:51.992Z,3.30
2023-04-04T15:00:26.827Z,2.10
2023-04-04T15:02:55.669Z,2.30
2023-04-04T15:05:33.641Z,1.50
2023-04-04T15:08:02.488Z,1.90
2023-04-04T15:10:38.288Z,2.30
2023-04-04T15:13:17.297Z,1.70
2023-04-04T15:15:46.326Z,1.80
2023-04-04T15:18:16.170Z,3.80
2023-04-04T15:20:51.234Z,2.80
2023-04-04T15:23:22.372Z,2.30
2023-04-04T15:25:50.688Z,2.40
2023-04-04T15:28:19.999Z,2.30
2023-04-04T15:30:48.407Z,3.00
2023-04-04T15:33:16.818Z,3.00
2023-04-04T15:35:45.632Z,2.00
2023-04-04T15:38:14.342Z,2.10
2023-04-04T15:40:53.460Z,2.50
2023-04-04T15:43:24.091Z,2.50
2023-04-04T15:45:52.977Z,2.50
2023-04-04T15:48:24.934Z,1.60
2023-04-04T15:50:58.912Z,2.00
2023-04-04T15:53:27.418Z,1.50
2023-04-04T15:55:56.213Z,2.20
2023-04-04T15:58:25.740Z,1.90
2023-04-04T16:00:57.482Z,4.00
2023-04-04T16:03:27.381Z,5.10
2023-04-04T16:05:56.628Z,122.70
2023-04-04T16:08:25.224Z,226.10
2023-04-04T16:11:03.519Z,210.10
2023-04-04T16:13:32.843Z,227.20
2023-04-04T16:16:05.165Z,57.40
2023-04-04T16:18:39.720Z,7.50
2023-04-04T16:21:08.885Z,3.00
2023-04-04T16:23:44.023Z,2.40
2023-04-04T16:26:12.675Z,2.90
2023-04-04T16:28:41.130Z,4.80
2023-04-04T16:31:15.139Z,2.70
2023-04-04T16:33:46.181Z,11.00
2023-04-04T16:36:17.305Z,28.60
2023-04-04T16:38:58.084Z,45.20
2023-04-04T16:41:26.943Z,40.60
2023-04-04T16:44:01.587Z,67.20
2023-04-04T16:46:31.491Z,86.70
2023-04-04T16:49:00.416Z,154.70
2023-04-04T16:51:28.757Z,19.10
2023-04-04T16:53:57.248Z,75.00
2023-04-04T16:56:25.657Z,36.40
2023-04-04T16:58:54.080Z,46.90
2023-04-04T17:01:23.251Z,39.60
2023-04-04T17:03:52.580Z,56.90
2023-04-04T17:06:21.327Z,12.70
2023-04-04T17:08:50.098Z,4.10
2023-04-04T17:11:18.426Z,102.10
2023-04-04T17:13:46.894Z,15.20
2023-04-04T17:16:15.389Z,11.60
2023-04-04T17:18:43.939Z,14.40
2023-04-04T17:21:12.376Z,4.70
2023-04-04T17:23:41.042Z,3.40
2023-04-04T17:26:09.551Z,3.60
2023-04-04T17:28:37.891Z,2.50
2023-04-04T17:31:07.242Z,3.10
2023-04-04T17:33:35.608Z,3.40
2023-04-04T17:36:03.905Z,5.80
2023-04-04T17:38:36.183Z,3.50
2023-04-04T17:41:04.455Z,4.30
2023-04-04T17:43:36.778Z,4.30
2023-04-04T17:46:06.751Z,4.00
2023-04-04T17:48:37.014Z,3.90
2023-04-04T17:51:07.097Z,4.50
2023-04-04T17:53:36.707Z,3.90
2023-04-04T17:56:06.452Z,4.10
2023-04-04T18:02:02.744Z,3.10
2023-04-04T18:04:32.028Z,2.20
2023-04-04T18:07:00.509Z,5.70
2023-04-04T18:09:37.265Z,6.90
2023-04-04T18:12:06.680Z,4.30
2023-04-04T18:14:34.913Z,5.30
2023-04-04T18:17:05.912Z,3.00
2023-04-04T18:19:35.408Z,3.90
2023-04-04T18:22:04.252Z,2.90
2023-04-04T18:24:36.717Z,2.80
2023-04-04T18:27:04.987Z,2.70
2023-04-04T18:29:37.862Z,3.40
2023-04-04T18:32:06.004Z,2.90
2023-04-04T18:34:34.469Z,2.90
2023-04-04T18:37:02.949Z,4.60
2023-04-04T18:39:31.963Z,5.40
2023-04-04T18:42:03.144Z,3.60
2023-04-04T18:44:33.040Z,4.00
2023-04-04T18:47:05.278Z,4.80
2023-04-04T18:49:34.108Z,7.90
2023-04-04T18:52:02.387Z,9.80
2023-04-04T18:54:30.915Z,2.70
2023-04-04T18:57:00.869Z,2.50
2023-04-04T18:59:30.904Z,2.60
2023-04-04T19:02:01.020Z,21.40
2023-04-04T19:04:35.239Z,18.70
2023-04-04T19:07:07.246Z,4.90
2023-04-04T19:09:36.636Z,3.50
2023-04-04T19:12:14.244Z,3.30
2023-04-04T19:14:42.515Z,4.90
2023-04-04T19:17:15.902Z,4.00
2023-04-04T19:19:44.233Z,3.30
2023-04-04T19:22:12.553Z,2.90
2023-04-04T19:24:42.519Z,2.30
2023-04-04T19:27:11.952Z,2.80
2023-04-04T19:29:40.520Z,2.90
2023-04-04T19:32:14.343Z,2.60
2023-04-04T19:34:43.347Z,3.20
2023-04-04T19:37:12.073Z,3.40
2023-04-04T19:39:42.582Z,3.00
2023-04-04T19:42:12.205Z,6.00
2023-04-04T19:44:41.159Z,3.30
2023-04-04T19:47:12.294Z,38.60
2023-04-04T19:49:42.669Z,4.20
2023-04-04T19:52:11.097Z,10.10
2023-04-04T19:54:43.022Z,25.20
2023-04-04T19:57:19.583Z,29.10
2023-04-04T19:59:54.471Z,14.30
2023-04-04T20:02:33.242Z,6.20
2023-04-04T20:05:01.999Z,4.90
2023-04-04T20:07:31.782Z,3.40
2023-04-04T20:10:00.348Z,3.80
2023-04-04T20:12:32.383Z,7.20
2023-04-04T20:15:04.979Z,6.70
2023-04-04T20:17:33.579Z,3.70
2023-04-04T20:20:02.298Z,36.30
2023-04-04T20:22:31.058Z,7.30
2023-04-04T20:24:59.525Z,4.20
2023-04-04T20:27:28.158Z,5.10
2023-04-04T20:29:56.827Z,4.70
2023-04-04T20:32:25.100Z,3.00
2023-04-04T20:34:53.666Z,2.20
2023-04-04T20:37:28.790Z,2.10
2023-04-04T20:39:59.015Z,3.20
2023-04-04T20:42:30.433Z,3.20
2023-04-04T20:45:26.975Z,4.30
2023-04-04T20:47:57.098Z,5.80
2023-04-04T20:50:27.307Z,5.60
2023-04-04T20:52:58.742Z,5.80
2023-04-04T20:55:28.277Z,5.30
2023-04-04T20:58:10.209Z,4.60
2023-04-04T21:00:39.837Z,6.00
2023-04-04T21:03:24.545Z,5.30
2023-04-04T21:05:56.587Z,4.70
2023-04-04T21:08:44.399Z,6.40
2023-04-04T21:11:13.864Z,5.50
2023-04-04T21:13:43.554Z,4.40
2023-04-04T21:16:13.405Z,3.30
2023-04-04T21:18:43.668Z,2.60
2023-04-04T21:21:12.708Z,48.50
2023-04-04T21:23:46.160Z,12.80
2023-04-04T21:26:33.157Z,4.80
2023-04-04T21:29:04.930Z,2.70
2023-04-04T21:31:37.846Z,2.90
2023-04-04T21:34:16.638Z,2.30
2023-04-04T21:36:45.103Z,2.90
2023-04-04T21:39:23.827Z,2.90
2023-04-04T21:41:56.599Z,3.10
2023-04-04T21:44:25.573Z,2.60
2023-04-04T21:46:56.492Z,1.90
2023-04-04T21:49:25.119Z,2.00
2023-04-04T21:51:53.389Z,3.10
2023-04-04T21:54:23.078Z,2.70
2023-04-04T21:56:51.785Z,2.20
2023-04-04T21:59:20.141Z,2.20
2023-04-04T22:01:50.240Z,2.60
2023-04-04T22:04:19.033Z,2.90
2023-04-04T22:06:47.328Z,2.30
2023-04-04T22:09:15.878Z,2.40
2023-04-04T22:11:46.917Z,2.60
2023-04-04T22:14:18.160Z,2.30
2023-04-04T22:16:46.670Z,3.00
2023-04-04T22:19:15.989Z,2.90
2023-04-04T22:21:48.341Z,2.20
2023-04-04T22:24:18.690Z,2.20
2023-04-04T22:26:47.434Z,2.40
2023-04-04T22:29:16.203Z,2.40
2023-04-04T22:31:44.745Z,3.00
2023-04-04T22:34:15.015Z,2.70
2023-04-04T22:39:16.459Z,2.60
2023-04-04T22:41:44.782Z,2.40
2023-04-04T22:44:13.541Z,2.90
2023-04-04T22:46:41.950Z,2.40
2023-04-04T22:49:10.199Z,2.80
2023-04-04T22:54:40.575Z,2.60
2023-04-04T22:57:08.993Z,3.70
2023-04-04T22:59:42.305Z,2.50
2023-04-04T23:02:10.750Z,2.60
2023-04-04T23:04:39.089Z,2.90
2023-04-04T23:07:08.236Z,2.40
2023-04-04T23:09:38.368Z,3.30
2023-04-04T23:12:09.632Z,3.00
2023-04-04T23:14:39.819Z,3.60
2023-04-04T23:17:08.566Z,2.70
2023-04-04T23:19:37.200Z,3.50
2023-04-04T23:22:11.319Z,3.00
2023-04-04T23:24:40.459Z,2.90
2023-04-04T23:27:08.877Z,2.70
2023-04-04T23:29:39.642Z,2.80
2023-04-04T23:32:08.212Z,3.00
2023-04-04T23:34:39.390Z,2.70
2023-04-04T23:37:08.106Z,2.80
2023-04-04T23:39:37.188Z,2.80
2023-04-04T23:42:06.006Z,2.80
2023-04-04T23:44:34.284Z,2.80
2023-04-04T23:47:02.692Z,2.60
2023-04-04T23:49:31.938Z,3.10
2023-04-04T23:52:05.454Z,2.80
2023-04-04T23:54:36.008Z,2.50
2023-04-04T23:57:05.940Z,2.60
2023-04-04T23:59:34.654Z,2.30
